x

Matinicus Rock, Me (mism1) Weather Station

11:00 - Thu 27th Apr 2017 All times are EDT. -4 hours from GMT.

  • Wind
    10mph, 11mph gusts
  • Ar Temp 45°f
  • Sea Pressure 1013.6mb
  • Matinicus Rock, Me
  • Matinicus Rock, Me

More Historic Weather Station data

Upgrade to MSW Pro to gain access to the past 30 days of data for over 8000 Wavebouys and Weather Stations around the globe.

Join Pro

Comparision Forecast

View Surf forecast
   
Qui 04/27 11:00 10 11 mph 1013.6mb 45f
10:00 20 21 mph 1013.2mb 46f
9:00 21 22 mph 1012.6mb 45f
8:00 17 18 mph 1013.1mb 44f
6:00 7 8 mph 1012.7mb 45f
5:00 11
mph
1012.1mb 47f
4:00 15 16 mph 1012.2mb 46f
3:00 17 18 mph 1012.2mb 46f
2:00 23
mph
1011.7mb 46f
1:00 23 25 mph 1011.6mb 47f
12:00 28 31 mph 1011.7mb 47f
Qua 04/26 11:00 25 28 mph 1012.2mb 46f
10:00 25 28 mph 1012.8mb 47f
9:00 28 29 mph 1013mb 47f
8:00 26 28 mph 1012.9mb 46f
7:00 26 28 mph 1012.7mb 47f
6:00 30 31 mph 1012.5mb 48f
5:00 31 32 mph 1012.4mb 48f
4:00 22 24 mph 1013.1mb 49f
3:00 26 29 mph 1013.5mb 48f
2:00 29 30 mph 1013.6mb 48f
1:00 30 32 mph 1014.2mb 48f
12:00 25 30 mph 1014.9mb 47f
11:00 28 29 mph 1015.5mb 46f
10:00 28 30 mph 1015.6mb 47f
9:00 25
mph
1016.1mb 45f
8:00 30 31 mph 1016.1mb 45f
7:00 29 32 mph 1016.3mb 45f
6:00 25 29 mph 1016.3mb 44f
5:00 30 32 mph 1016.4mb 44f
4:00 32 33 mph 1017.1mb 43f
3:00 30 32 mph 1018.2mb 43f
2:00 26 29 mph 1019.7mb 42f
1:00 28 30 mph 1020.5mb 42f
12:00 26 28 mph 1021.4mb 42f
Ter 04/25 11:00 26 29 mph 1022.4mb 41f
10:00 29 31 mph 1023.3mb 41f
9:00 31 34 mph 1023.8mb 42f
8:00 29 31 mph 1024.3mb 42f
7:00 25 28 mph 1025.1mb 42f
6:00 26 29 mph 1025.4mb 41f
5:00 28 30 mph 1025.6mb 42f
4:00 28 31 mph 1026.4mb 41f
3:00 28 31 mph 1026.7mb 42f
2:00 28 31 mph 1027.2mb 42f
1:00 25 28 mph 1028.1mb 42f
12:00 24 26 mph 1028.5mb 42f
11:00 23 24 mph 1028.7mb 42f
10:00 25 28 mph 1027.9mb 42f
9:00 21 23 mph 1028.4mb 41f
8:00 22 24 mph 1027.8mb 40f
7:00 21 22 mph 1027.3mb 39f
6:00 17 18 mph 1026.2mb 39f
5:00 14 15 mph 1025.9mb 38f
4:00 13
mph
1025.6mb 39f
3:00 11
mph
1025.5mb 38f
2:00 11 13 mph 1025.4mb 39f
1:00 7
mph
1025.3mb 41f
12:00 5
mph
1024.8mb 41f
Seg 04/24 11:00 5 6 mph 1024.7mb 42f
10:00 8
mph
1024.6mb 42f
9:00 11
mph
1024.1mb 43f
8:00 9 10 mph 1023.6mb 44f
7:00 11
mph
1022.7mb 46f
6:00 8 9 mph 1022.5mb 49f
5:00 8
mph
1021.9mb 49f
4:00 10 11 mph 1021.3mb 48f
3:00 10 11 mph 1021.9mb 49f
2:00 10
mph
1021.8mb 52f
1:00 9
mph
1021.8mb 53f
12:00 6
mph
1021.9mb 51f
11:00  -  3 mph 1021.7mb 47f
10:00 7 8 mph 1021.6mb 44f
9:00 5
mph
1020.9mb 44f
8:00 7
mph
1020.4mb 44f
7:00 8
mph
1019.5mb 43f
6:00 11 13 mph 1018.8mb 43f
5:00 14 15 mph 1017.9mb 43f
4:00 22 24 mph 1017.1mb 43f
3:00 23 25 mph 1016.6mb 43f
2:00 20 22 mph 1016.6mb 43f
1:00 22 24 mph 1016.9mb 43f
12:00 24 25 mph 1017.1mb 43f
Dom 04/23 11:00 23 25 mph 1017.4mb 43f
10:00 24 25 mph 1017.5mb 43f
9:00 23 25 mph 1017.2mb 43f
8:00 21 23 mph 1017mb 43f
7:00 18 21 mph 1016.7mb 43f
6:00 16 17 mph 1016.5mb 45f
5:00 16
mph
1016.7mb 45f